Delta Virtual Airport Information Service

Washington Ronald Reagan National Airport

ICAO: KDCA Country: United States
Latitude: 38.8521 Longitude: -77.0377
Latest Arrival : DAL1346 (A) (KSLC-KDCA) Latest Departure : RPA4475 (A) (KDCA-KSYR)


WX CaptureLIVE
Data provided by noaa.gov | Fetched at 04:19:03

METAR : KDCA 030952Z 34011KT 10SM FEW250 09/M02 A2996 RMK AO2 SLP145 T00941017

TAF : KDCA 030836Z 0309/0412 31008KT P6SM SCT250 FM031500 31010G21KT P6SM FEW110 FEW250 FM032100 31008KT P6SM FEW060 SCT200 FM040500 11004KT P6SM SCT060 BKN140 FM041000 07005KT P6SM SCT050 BKN070 FM041100 07005KT P6SM FEW040 SCT070


Runway Data for KDCA
Data provided by openaviationdata.com

Runway ID Mag Var Hdg Length Elevation Surface ILS Freq ILS Id ILS Slope
1 -10 6875 ft 15 ft Asphalt 109.9 IDCA 3
4 -10 35° 4914 ft 15 ft Asphalt -- -- --
15 -10 152° 5190 ft 15 ft Asphalt -- -- --
19 -10 185° 6875 ft 15 ft Asphalt 109.9 0
22 -10 215° 4914 ft 15 ft Asphalt -- -- --
33 -10 332° 5190 ft 15 ft Asphalt -- -- --

Washington Ronald Reagan National Airport, United States
Use only for reference purposes



Not for navigational purposes.